Time;durP1;ratioP1;P1;durP2;ratioP2;P2;SDS_P1;SDS_P2;PMS_P1;PMS_P2;Temp;Humidity;BMP_temperature;BMP_pressure;BME280_temperature;BME280_humidity;BME280_pressure;Samples;Min_cycle;Max_cycle;Signal;HPM_P1;HPM_P2
2021/09/28 00:01:21;;;;;;;5.97;1.88;;;11.90;99.90;;;;;;5094896;28;20539;-57
2021/09/28 00:03:46;;;;;;;7.10;2.30;;;11.90;99.90;;;;;;5095198;28;20032;-57
2021/09/28 00:06:12;;;;;;;5.97;2.20;;;11.90;99.90;;;;;;5095139;28;20032;-56
2021/09/28 00:08:41;;;;;;;8.40;2.20;;;11.80;99.90;;;;;;5095103;28;20040;-56
2021/09/28 00:11:07;;;;;;;10.63;2.95;;;11.80;99.90;;;;;;5095134;28;20047;-57
2021/09/28 00:13:32;;;;;;;4.85;2.15;;;11.90;99.90;;;;;;5095106;28;20036;-57
2021/09/28 00:15:58;;;;;;;3.97;2.08;;;11.70;99.90;;;;;;5095123;28;20089;-57
2021/09/28 00:18:24;;;;;;;6.65;2.35;;;11.70;99.90;;;;;;5094886;28;20755;-56
2021/09/28 00:20:50;;;;;;;7.80;2.30;;;11.70;99.90;;;;;;5095112;28;20487;-57
2021/09/28 00:23:15;;;;;;;5.45;3.00;;;11.70;99.90;;;;;;5094894;28;20036;-57
2021/09/28 00:25:42;;;;;;;3.80;1.95;;;11.70;99.90;;;;;;5094703;28;20484;-57
2021/09/28 00:28:08;;;;;;;6.28;2.55;;;11.70;99.90;;;;;;5094721;28;20047;-56
2021/09/28 00:30:34;;;;;;;7.82;2.25;;;11.60;99.90;;;;;;5094926;28;20040;-56
2021/09/28 00:32:59;;;;;;;7.25;2.47;;;11.60;99.90;;;;;;5093534;28;20047;-56
2021/09/28 00:35:25;;;;;;;6.47;2.00;;;11.70;99.90;;;;;;5094241;28;20109;-56
2021/09/28 00:37:51;;;;;;;5.55;2.75;;;11.60;99.90;;;;;;5094791;28;20086;-56
2021/09/28 00:40:16;;;;;;;9.25;3.17;;;11.60;99.90;;;;;;5094606;28;20389;-56
2021/09/28 00:42:42;;;;;;;3.38;2.28;;;11.60;99.90;;;;;;5094317;28;20486;-57
2021/09/28 00:45:08;;;;;;;5.28;2.30;;;11.60;99.90;;;;;;5094320;28;20410;-57
2021/09/28 00:47:34;;;;;;;5.55;3.28;;;11.60;99.90;;;;;;5094095;28;20486;-56
2021/09/28 00:50:00;;;;;;;6.47;3.08;;;11.60;99.90;;;;;;5094245;28;20070;-57
2021/09/28 00:52:26;;;;;;;7.68;2.95;;;11.50;99.90;;;;;;5092632;28;20529;-56
2021/09/28 00:54:52;;;;;;;5.28;2.80;;;11.50;99.90;;;;;;5094322;28;20103;-56
2021/09/28 00:57:18;;;;;;;10.57;3.70;;;11.50;99.90;;;;;;5094055;28;20043;-56
2021/09/28 00:59:44;;;;;;;7.88;3.00;;;11.50;99.90;;;;;;5094221;28;20040;-56
2021/09/28 01:02:13;;;;;;;5.82;3.20;;;11.50;99.90;;;;;;5094096;28;20059;-56
2021/09/28 01:04:39;;;;;;;6.15;3.13;;;11.50;99.90;;;;;;5093936;28;20040;-57
2021/09/28 01:07:06;;;;;;;13.13;3.58;;;11.50;99.90;;;;;;5094338;28;20371;-57
2021/09/28 01:09:32;;;;;;;5.53;2.95;;;11.50;99.90;;;;;;5094241;28;20083;-57
2021/09/28 01:11:58;;;;;;;7.13;3.13;;;11.50;99.90;;;;;;5093980;28;20659;-56
2021/09/28 01:14:24;;;;;;;8.25;3.38;;;11.50;99.90;;;;;;5093827;28;20147;-56
2021/09/28 01:16:50;;;;;;;8.05;2.80;;;11.40;99.90;;;;;;5093600;28;20043;-56
2021/09/28 01:19:16;;;;;;;8.27;3.03;;;11.40;99.90;;;;;;5093619;28;20124;-57
2021/09/28 01:21:42;;;;;;;7.20;3.20;;;11.40;99.90;;;;;;5093694;28;20093;-56
2021/09/28 01:24:09;;;;;;;10.02;3.28;;;11.40;99.90;;;;;;5093658;28;20123;-56
2021/09/28 01:26:35;;;;;;;6.05;3.63;;;11.60;99.90;;;;;;5093549;28;20111;-56
2021/09/28 01:29:03;;;;;;;9.70;3.22;;;11.40;99.90;;;;;;5093447;28;20450;-56
2021/09/28 01:31:29;;;;;;;7.68;3.47;;;11.40;99.90;;;;;;5093503;28;20371;-57
2021/09/28 01:33:55;;;;;;;6.53;3.22;;;11.40;99.90;;;;;;5093043;28;20150;-57
2021/09/28 01:36:21;;;;;;;7.40;3.33;;;11.40;99.90;;;;;;5093437;28;20075;-56
2021/09/28 01:38:47;;;;;;;13.80;3.65;;;11.40;99.90;;;;;;5093418;28;20038;-57
2021/09/28 01:41:13;;;;;;;5.72;3.38;;;11.30;99.90;;;;;;5093257;28;20375;-57
2021/09/28 01:43:38;;;;;;;7.00;3.40;;;11.30;99.90;;;;;;5093146;28;20040;-57
2021/09/28 01:46:05;;;;;;;5.35;3.55;;;11.30;99.90;;;;;;5093083;28;20048;-56
2021/09/28 01:48:55;;;;;;;9.32;3.70;;;11.30;99.90;;;;;;5093068;28;20046;-57
2021/09/28 01:51:21;;;;;;;8.20;3.45;;;11.20;99.90;;;;;;5093055;28;20036;-56
2021/09/28 01:53:47;;;;;;;7.63;3.78;;;11.20;99.90;;;;;;5093129;28;20115;-56
2021/09/28 01:56:25;;;;;;;9.23;3.67;;;11.20;99.90;;;;;;5091589;28;20032;-56
2021/09/28 01:58:51;;;;;;;13.23;4.25;;;11.20;99.90;;;;;;5092983;28;20036;-57
2021/09/28 02:01:17;;;;;;;9.10;3.90;;;11.20;99.90;;;;;;5092679;28;20478;-56
2021/09/28 02:03:43;;;;;;;7.90;4.25;;;11.20;99.90;;;;;;5092182;28;20047;-56
2021/09/28 02:06:08;;;;;;;10.65;4.32;;;11.20;99.90;;;;;;5092893;28;20047;-56
2021/09/28 02:08:34;;;;;;;6.72;4.25;;;11.20;99.90;;;;;;5091415;28;20044;-57
2021/09/28 02:11:00;;;;;;;7.47;3.75;;;11.30;99.90;;;;;;5092953;28;20043;-57
2021/09/28 02:13:25;;;;;;;5.93;3.80;;;11.30;99.90;;;;;;5092590;28;20485;-57
2021/09/28 02:15:51;;;;;;;10.25;5.03;;;11.30;99.90;;;;;;5091550;28;20113;-56
2021/09/28 02:18:17;;;;;;;11.45;4.30;;;11.30;99.90;;;;;;5092707;28;20055;-57
2021/09/28 02:20:42;;;;;;;7.97;4.35;;;11.20;99.90;;;;;;5092523;28;20036;-56
2021/09/28 02:23:09;;;;;;;7.97;3.97;;;11.20;99.90;;;;;;5092371;28;20044;-56
2021/09/28 02:25:35;;;;;;;7.57;3.83;;;11.20;99.90;;;;;;5092478;28;20036;-56
2021/09/28 02:28:01;;;;;;;9.23;4.38;;;11.20;99.90;;;;;;5092235;28;20047;-57
2021/09/28 02:30:26;;;;;;;5.10;4.38;;;11.10;99.90;;;;;;5092281;28;20115;-56
2021/09/28 02:32:52;;;;;;;9.48;4.78;;;11.20;99.90;;;;;;5092335;28;20111;-56
2021/09/28 02:35:18;;;;;;;11.73;4.80;;;11.10;99.90;;;;;;5092134;28;20505;-56
2021/09/28 02:37:44;;;;;;;9.02;4.78;;;11.10;99.90;;;;;;5092439;28;20093;-56
2021/09/28 02:40:11;;;;;;;6.60;3.97;;;11.00;99.90;;;;;;5092498;28;20117;-56
2021/09/28 02:42:36;;;;;;;11.57;4.22;;;11.00;99.90;;;;;;5092142;28;20430;-57
2021/09/28 02:45:06;;;;;;;8.07;4.90;;;11.00;99.90;;;;;;5091382;28;20036;-57
2021/09/28 02:47:32;;;;;;;8.30;5.70;;;11.00;99.90;;;;;;5092303;28;20089;-57
2021/09/28 02:49:58;;;;;;;9.10;5.07;;;11.00;99.90;;;;;;5092316;28;20036;-56
2021/09/28 02:52:24;;;;;;;5.75;4.65;;;11.00;99.90;;;;;;5092266;28;20043;-57
2021/09/28 02:54:49;;;;;;;11.35;5.15;;;11.00;99.90;;;;;;5092020;28;20127;-57
2021/09/28 02:57:15;;;;;;;8.13;4.93;;;11.00;99.90;;;;;;5091958;28;20093;-56
2021/09/28 02:59:40;;;;;;;7.55;4.35;;;11.00;99.90;;;;;;5091931;28;20457;-57
2021/09/28 03:02:06;;;;;;;12.15;5.07;;;11.00;99.90;;;;;;5092118;28;20050;-56
2021/09/28 03:04:32;;;;;;;10.43;5.88;;;11.00;99.90;;;;;;5091933;28;20032;-56
2021/09/28 03:06:58;;;;;;;8.85;5.20;;;11.00;99.90;;;;;;5090667;28;20119;-56
2021/09/28 03:09:24;;;;;;;8.27;5.45;;;11.00;99.90;;;;;;5091754;28;20499;-57
2021/09/28 03:11:49;;;;;;;8.27;5.10;;;11.00;99.90;;;;;;5091773;28;20072;-56
2021/09/28 03:14:15;;;;;;;17.15;5.95;;;11.00;99.90;;;;;;5091893;28;20047;-57
2021/09/28 03:16:41;;;;;;;9.48;5.18;;;11.00;99.90;;;;;;5094660;28;20044;-56
2021/09/28 03:19:06;;;;;;;13.93;6.13;;;11.00;99.90;;;;;;5096119;28;20397;-56
2021/09/28 03:21:32;;;;;;;10.65;4.97;;;11.00;99.90;;;;;;5095878;28;20530;-56
2021/09/28 03:23:58;;;;;;;13.50;5.80;;;11.00;99.90;;;;;;5095895;28;20515;-56
2021/09/28 03:26:25;;;;;;;10.23;6.25;;;11.00;99.90;;;;;;5095732;28;20044;-56
2021/09/28 03:28:51;;;;;;;12.70;6.15;;;11.00;99.90;;;;;;5095645;28;20520;-56
2021/09/28 03:31:17;;;;;;;11.52;6.47;;;11.00;99.90;;;;;;5095967;28;20044;-57
2021/09/28 03:33:43;;;;;;;12.13;5.88;;;11.00;99.90;;;;;;5095656;28;20032;-56
2021/09/28 03:36:09;;;;;;;17.35;6.45;;;11.00;99.90;;;;;;5095917;28;20085;-56
2021/09/28 03:38:34;;;;;;;7.75;5.75;;;10.90;99.90;;;;;;5095619;28;20127;-57
2021/09/28 03:41:00;;;;;;;16.08;6.40;;;11.00;99.90;;;;;;5095307;28;20044;-57
2021/09/28 03:43:26;;;;;;;8.20;6.10;;;11.00;99.90;;;;;;5095653;28;20040;-57
2021/09/28 03:45:54;;;;;;;10.70;6.95;;;10.90;99.90;;;;;;5095404;28;20509;-56
2021/09/28 03:48:21;;;;;;;8.85;5.93;;;10.90;99.90;;;;;;5094544;28;20044;-57
2021/09/28 03:50:47;;;;;;;11.07;6.72;;;10.90;99.90;;;;;;5095295;28;20111;-56
2021/09/28 03:53:14;;;;;;;10.90;6.60;;;11.00;99.90;;;;;;5095333;28;20032;-56
2021/09/28 03:55:39;;;;;;;10.07;6.85;;;10.90;99.90;;;;;;5095327;28;20079;-56
2021/09/28 03:58:05;;;;;;;11.80;7.25;;;10.90;99.90;;;;;;5095374;28;20071;-57
2021/09/28 04:00:31;;;;;;;15.98;6.68;;;10.80;99.90;;;;;;5095189;28;20389;-57
2021/09/28 04:02:57;;;;;;;14.35;7.88;;;10.80;99.90;;;;;;5095185;28;20082;-56
2021/09/28 04:05:23;;;;;;;17.08;7.20;;;10.80;99.90;;;;;;5095217;28;20482;-56
2021/09/28 04:07:48;;;;;;;8.20;6.57;;;10.80;99.90;;;;;;5094991;28;20032;-56
2021/09/28 04:10:14;;;;;;;11.02;7.00;;;10.80;99.90;;;;;;5095041;28;20044;-57
2021/09/28 04:12:40;;;;;;;10.70;6.18;;;10.80;99.90;;;;;;5095071;28;20040;-57
2021/09/28 04:15:07;;;;;;;10.80;6.93;;;10.70;99.90;;;;;;5095048;28;20089;-56
2021/09/28 04:17:32;;;;;;;10.00;6.95;;;10.70;99.90;;;;;;5094856;28;20036;-56
2021/09/28 04:19:58;;;;;;;14.82;8.23;;;10.70;99.90;;;;;;5094845;28;20386;-57
2021/09/28 04:22:24;;;;;;;12.27;7.75;;;10.70;99.90;;;;;;5094884;28;20472;-56
2021/09/28 04:24:51;;;;;;;15.23;8.38;;;10.80;99.90;;;;;;5094607;28;20040;-57
2021/09/28 04:27:18;;;;;;;15.68;8.57;;;10.80;99.90;;;;;;5094522;28;20128;-56
2021/09/28 04:29:44;;;;;;;13.85;8.43;;;10.90;99.90;;;;;;5094929;28;20040;-56
2021/09/28 04:32:10;;;;;;;14.75;8.05;;;10.80;99.90;;;;;;5095014;28;20121;-56
2021/09/28 04:34:36;;;;;;;14.95;8.38;;;10.80;99.90;;;;;;5094583;28;20398;-56
2021/09/28 04:37:02;;;;;;;17.65;7.82;;;10.80;99.90;;;;;;5094428;28;20048;-56
2021/09/28 04:39:28;;;;;;;13.40;8.30;;;10.80;99.90;;;;;;5094325;28;20505;-56
2021/09/28 04:41:53;;;;;;;13.50;8.00;;;10.80;99.90;;;;;;5094506;28;20043;-56
2021/09/28 04:44:19;;;;;;;10.73;7.20;;;10.80;99.90;;;;;;5094508;28;20043;-57
2021/09/28 04:46:44;;;;;;;17.77;8.60;;;10.80;99.90;;;;;;5094393;28;20032;-57
2021/09/28 04:49:10;;;;;;;10.73;7.22;;;10.80;99.90;;;;;;5094191;28;20098;-56
2021/09/28 04:51:36;;;;;;;12.70;7.43;;;10.80;99.90;;;;;;5093202;28;20047;-56
2021/09/28 04:54:02;;;;;;;13.05;8.18;;;10.80;99.90;;;;;;5094007;28;20071;-56
2021/09/28 04:56:28;;;;;;;12.45;8.32;;;10.90;99.90;;;;;;5094282;28;20044;-56
2021/09/28 04:58:54;;;;;;;13.57;7.97;;;10.80;99.90;;;;;;5094127;28;20043;-56
2021/09/28 05:01:20;;;;;;;13.27;8.50;;;10.80;99.90;;;;;;5093921;28;20035;-56
2021/09/28 05:03:45;;;;;;;16.05;8.48;;;10.70;99.90;;;;;;5094031;28;20405;-56
2021/09/28 05:06:14;;;;;;;16.05;7.35;;;10.70;99.90;;;;;;5093972;28;20036;-57
2021/09/28 05:08:40;;;;;;;14.07;7.03;;;10.70;99.90;;;;;;5093820;28;20480;-56
2021/09/28 05:11:12;;;;;;;17.17;8.70;;;10.80;99.90;;;;;;5093996;28;20039;-57
2021/09/28 05:13:39;;;;;;;10.07;8.40;;;10.70;99.90;;;;;;5094044;28;20058;-56
2021/09/28 05:16:05;;;;;;;16.98;9.05;;;10.70;99.90;;;;;;5093475;28;20591;-56
2021/09/28 05:18:30;;;;;;;13.70;8.30;;;10.70;99.90;;;;;;5093753;28;20123;-56
2021/09/28 05:20:56;;;;;;;14.05;7.85;;;10.70;99.90;;;;;;5093425;28;20486;-57
2021/09/28 05:23:22;;;;;;;12.60;8.00;;;10.70;99.90;;;;;;5093954;28;20040;-57
2021/09/28 05:25:47;;;;;;;12.77;7.50;;;10.70;99.90;;;;;;5093389;28;20040;-56
2021/09/28 05:28:13;;;;;;;14.20;8.52;;;10.70;99.90;;;;;;5093423;28;20032;-57
2021/09/28 05:30:39;;;;;;;16.52;8.85;;;10.70;99.90;;;;;;5093477;28;20044;-56
2021/09/28 05:33:05;;;;;;;12.70;7.25;;;10.70;99.90;;;;;;5093477;28;20464;-56
2021/09/28 05:35:31;;;;;;;16.15;7.97;;;10.70;99.90;;;;;;5093382;28;20525;-57
2021/09/28 05:37:57;;;;;;;15.65;8.32;;;10.70;99.90;;;;;;5093090;28;20051;-56
2021/09/28 05:40:23;;;;;;;17.20;7.90;;;10.60;99.90;;;;;;5093218;28;20044;-56
2021/09/28 05:42:48;;;;;;;14.25;7.72;;;10.60;99.90;;;;;;5093288;28;20504;-57
2021/09/28 05:45:14;;;;;;;11.95;7.03;;;10.60;99.90;;;;;;5093098;28;20111;-56
2021/09/28 05:47:40;;;;;;;16.25;9.05;;;10.70;99.90;;;;;;5093109;28;20127;-56
2021/09/28 05:50:06;;;;;;;14.52;7.38;;;10.60;99.90;;;;;;5093000;28;20040;-56
2021/09/28 05:52:32;;;;;;;14.10;7.88;;;10.60;99.90;;;;;;5092933;28;20379;-57
2021/09/28 05:55:00;;;;;;;17.48;8.40;;;10.60;99.90;;;;;;5091967;28;20059;-57
2021/09/28 05:57:26;;;;;;;12.52;8.57;;;10.70;99.90;;;;;;5092885;28;20085;-56
2021/09/28 05:59:51;;;;;;;12.60;8.07;;;10.70;99.90;;;;;;5092902;28;20036;-56
2021/09/28 06:02:18;;;;;;;13.07;8.30;;;10.70;99.90;;;;;;5092820;28;20036;-57
2021/09/28 06:04:44;;;;;;;16.38;8.45;;;10.70;99.90;;;;;;5092627;28;20047;-57
2021/09/28 06:07:11;;;;;;;13.52;7.75;;;10.70;99.90;;;;;;5093036;28;20378;-57
2021/09/28 06:09:39;;;;;;;12.30;7.32;;;10.80;99.90;;;;;;5092919;28;20036;-56
2021/09/28 06:12:06;;;;;;;17.57;8.00;;;10.80;99.90;;;;;;5092751;28;20367;-57
2021/09/28 06:14:33;;;;;;;14.73;8.02;;;10.80;99.90;;;;;;5092616;28;20428;-56
2021/09/28 06:17:00;;;;;;;16.30;8.63;;;10.90;99.90;;;;;;5092572;28;20039;-57
2021/09/28 06:19:26;;;;;;;17.25;8.07;;;10.80;99.90;;;;;;5092352;28;20079;-57
2021/09/28 06:21:52;;;;;;;12.45;7.47;;;10.90;99.90;;;;;;5092655;28;20040;-57
2021/09/28 06:24:18;;;;;;;17.50;8.48;;;10.90;99.90;;;;;;5092560;28;20093;-57
2021/09/28 06:26:45;;;;;;;14.50;7.75;;;10.90;99.90;;;;;;5092455;28;20039;-56
2021/09/28 06:29:11;;;;;;;14.63;8.63;;;10.90;99.90;;;;;;5092299;28;20032;-56
2021/09/28 06:31:37;;;;;;;19.65;8.65;;;11.00;99.90;;;;;;5092219;28;20481;-57
2021/09/28 06:34:03;;;;;;;13.82;8.25;;;11.00;99.90;;;;;;5092024;28;20131;-57
2021/09/28 06:36:29;;;;;;;12.55;8.00;;;11.10;99.90;;;;;;5092158;28;20044;-57
2021/09/28 06:38:55;;;;;;;15.77;8.07;;;11.10;99.90;;;;;;5092287;28;20028;-57
2021/09/28 06:41:21;;;;;;;16.67;8.60;;;11.20;99.90;;;;;;5092092;28;20094;-57
2021/09/28 06:43:48;;;;;;;17.52;8.20;;;11.20;99.90;;;;;;5091172;28;20067;-57
2021/09/28 06:46:14;;;;;;;13.73;7.97;;;11.20;99.90;;;;;;5091173;28;20040;-56
2021/09/28 06:48:39;;;;;;;16.70;8.60;;;11.30;99.90;;;;;;5092388;28;20082;-56
2021/09/28 06:51:05;;;;;;;13.93;8.80;;;11.30;99.90;;;;;;5092171;28;20062;-57
2021/09/28 06:53:32;;;;;;;16.02;9.20;;;11.40;99.90;;;;;;5090809;28;20401;-56
2021/09/28 06:55:58;;;;;;;18.35;9.45;;;11.50;99.90;;;;;;5092134;28;20067;-56
2021/09/28 06:58:24;;;;;;;18.77;8.68;;;11.50;99.90;;;;;;5092052;28;20446;-56
2021/09/28 07:00:50;;;;;;;17.65;9.90;;;11.60;99.90;;;;;;5091866;28;20496;-56
2021/09/28 07:03:16;;;;;;;14.27;8.27;;;11.70;99.90;;;;;;5092112;28;20436;-56
2021/09/28 07:05:42;;;;;;;16.75;8.05;;;11.90;99.90;;;;;;5092050;28;20040;-56
2021/09/28 07:08:08;;;;;;;17.35;7.82;;;12.10;99.90;;;;;;5091972;28;20032;-56
2021/09/28 07:10:34;;;;;;;11.85;7.45;;;12.30;99.90;;;;;;5091879;28;20466;-57
2021/09/28 07:13:00;;;;;;;17.70;7.60;;;12.50;99.90;;;;;;5091880;28;20051;-57
2021/09/28 07:15:25;;;;;;;13.95;7.60;;;12.80;99.90;;;;;;5091652;28;20122;-56
2021/09/28 07:17:53;;;;;;;12.82;7.15;;;13.10;99.90;;;;;;5091687;28;20062;-57
2021/09/28 07:20:19;;;;;;;16.45;6.28;;;13.40;99.90;;;;;;5091745;28;20159;-56
2021/09/28 07:22:45;;;;;;;12.88;6.45;;;13.80;99.90;;;;;;5091725;28;20137;-57
2021/09/28 07:25:11;;;;;;;14.18;5.50;;;14.10;99.90;;;;;;5091867;28;20482;-57
2021/09/28 07:27:37;;;;;;;11.35;5.72;;;14.40;99.90;;;;;;5091704;28;20032;-57
2021/09/28 07:30:05;;;;;;;14.50;5.28;;;14.80;99.90;;;;;;5091621;28;20028;-57
2021/09/28 07:32:30;;;;;;;11.50;5.75;;;15.00;99.90;;;;;;5091513;28;20048;-56
2021/09/28 07:34:56;;;;;;;9.30;5.03;;;15.40;99.90;;;;;;5091562;28;20139;-57
2021/09/28 07:37:27;;;;;;;12.00;5.25;;;15.60;99.90;;;;;;5091655;28;20393;-57
2021/09/28 07:39:54;;;;;;;13.55;5.65;;;15.90;99.90;;;;;;5091000;28;20551;-57
2021/09/28 07:42:19;;;;;;;12.25;5.65;;;16.30;99.90;;;;;;5091312;28;20036;-56
2021/09/28 07:44:46;;;;;;;11.93;5.30;;;16.60;99.90;;;;;;5091461;28;20033;-57
2021/09/28 07:47:12;;;;;;;16.77;4.78;;;16.80;99.90;;;;;;5091674;28;20432;-57
2021/09/28 07:49:38;;;;;;;14.18;4.18;;;16.80;99.90;;;;;;5091663;28;20085;-56
2021/09/28 07:52:04;;;;;;;12.43;5.05;;;17.20;99.90;;;;;;5091546;28;20101;-57
2021/09/28 07:54:30;;;;;;;10.00;4.80;;;17.30;99.90;;;;;;5090186;28;20032;-57
2021/09/28 07:56:57;;;;;;;11.82;4.78;;;17.50;99.90;;;;;;5091518;28;20047;-56
2021/09/28 07:59:23;;;;;;;12.38;4.65;;;17.80;99.90;;;;;;5091414;28;20173;-57
2021/09/28 08:01:49;;;;;;;9.50;4.00;;;18.10;99.90;;;;;;5092961;28;20151;-56
2021/09/28 08:04:19;;;;;;;10.50;3.80;;;18.30;99.90;;;;;;5095286;28;20067;-56
2021/09/28 08:06:45;;;;;;;12.80;4.78;;;18.50;99.90;;;;;;5095273;28;20436;-56
2021/09/28 08:09:11;;;;;;;9.77;4.57;;;18.70;99.90;;;;;;5095138;28;20093;-56
2021/09/28 08:11:36;;;;;;;12.68;4.95;;;18.80;99.90;;;;;;5095237;28;20040;-56
2021/09/28 08:14:02;;;;;;;11.75;4.90;;;19.00;99.90;;;;;;5094909;28;20036;-56
2021/09/28 08:16:29;;;;;;;20.58;4.22;;;19.20;99.90;;;;;;5095103;28;20046;-56
2021/09/28 08:18:55;;;;;;;14.02;3.83;;;19.30;99.90;;;;;;5094898;28;20047;-56
2021/09/28 08:21:21;;;;;;;10.60;3.85;;;19.60;99.90;;;;;;5094973;28;20047;-56
2021/09/28 08:23:47;;;;;;;12.18;4.00;;;19.70;99.90;;;;;;5094861;28;20489;-56
2021/09/28 08:29:09;;;;;;;9.48;3.70;;;19.90;99.90;;;;;;5094908;28;20039;-57
2021/09/28 08:31:35;;;;;;;11.15;4.22;;;19.90;99.90;;;;;;5095037;28;20179;-57
2021/09/28 08:34:03;;;;;;;14.05;3.60;;;20.00;99.90;;;;;;5094644;28;20612;-56
2021/09/28 08:36:29;;;;;;;10.15;4.22;;;20.00;99.90;;;;;;5094866;28;20055;-56
2021/09/28 08:38:55;;;;;;;9.23;3.70;;;20.30;99.90;;;;;;5094710;28;20046;-56
2021/09/28 08:41:21;;;;;;;10.63;4.10;;;20.40;99.90;;;;;;5094471;28;20123;-57
2021/09/28 08:43:48;;;;;;;12.45;3.70;;;20.80;99.90;;;;;;5093108;28;20046;-57
2021/09/28 08:46:18;;;;;;;12.32;3.30;;;20.90;99.90;;;;;;5094233;28;20501;-57
2021/09/28 08:48:45;;;;;;;11.75;4.07;;;21.00;99.90;;;;;;5094642;28;20036;-56
2021/09/28 08:51:10;;;;;;;15.73;4.35;;;21.10;99.90;;;;;;5094634;28;20051;-57
2021/09/28 08:53:37;;;;;;;13.90;4.43;;;21.20;99.90;;;;;;5094311;28;20043;-56
2021/09/28 08:56:09;;;;;;;13.05;3.65;;;21.40;99.90;;;;;;5094655;28;20047;-56
2021/09/28 08:59:02;;;;;;;11.75;3.67;;;21.40;99.90;;;;;;5094146;28;20119;-56
2021/09/28 09:01:32;;;;;;;13.60;3.75;;;21.60;99.90;;;;;;5094543;28;20067;-57
2021/09/28 09:04:19;;;;;;;10.50;3.17;;;21.60;99.90;;;;;;5094071;28;20043;-57
2021/09/28 09:06:45;;;;;;;16.13;3.50;;;21.50;99.90;;;;;;5094140;28;20078;-56
2021/09/28 09:09:15;;;;;;;12.30;3.53;;;21.50;99.90;;;;;;5093011;28;20089;-56
2021/09/28 09:11:47;;;;;;;11.35;3.40;;;21.60;99.90;;;;;;5093857;28;20036;-56
2021/09/28 09:14:14;;;;;;;17.30;3.78;;;21.80;99.90;;;;;;5092692;28;20039;-56
2021/09/28 09:16:41;;;;;;;10.77;3.03;;;21.70;99.90;;;;;;5092636;28;20075;-56
2021/09/28 09:19:29;;;;;;;12.95;3.67;;;21.70;99.90;;;;;;5092559;28;20051;-56
2021/09/28 09:21:59;;;;;;;13.20;3.08;;;21.70;99.90;;;;;;5093713;28;20055;-56
2021/09/28 09:24:45;;;;;;;10.88;3.00;;;21.60;99.90;;;;;;5093976;28;20083;-56
2021/09/28 09:27:14;;;;;;;11.63;3.25;;;21.30;99.90;;;;;;5093738;28;20118;-56
2021/09/28 09:29:41;;;;;;;9.82;3.22;;;21.00;99.90;;;;;;5093952;28;20441;-55
2021/09/28 09:32:07;;;;;;;12.23;3.40;;;20.80;99.90;;;;;;5093981;28;20450;-56
2021/09/28 09:34:33;;;;;;;11.23;3.38;;;20.70;99.90;;;;;;5093374;28;20056;-56
2021/09/28 09:37:10;;;;;;;9.98;2.92;;;20.60;99.90;;;;;;5093405;28;20042;-56
2021/09/28 09:39:50;;;;;;;10.77;3.13;;;20.40;99.90;;;;;;5093606;28;20043;-56
2021/09/28 09:42:16;;;;;;;15.50;3.75;;;20.10;99.90;;;;;;5093655;28;20098;-56
2021/09/28 09:44:42;;;;;;;14.10;2.80;;;20.00;99.90;;;;;;5093582;28;20063;-56
2021/09/28 09:47:28;;;;;;;11.70;3.15;;;20.00;99.90;;;;;;5093340;28;20538;-56
2021/09/28 09:50:12;;;;;;;14.63;3.58;;;19.90;99.90;;;;;;5093078;28;20040;-56
2021/09/28 09:52:58;;;;;;;23.73;3.63;;;19.70;99.90;;;;;;5093452;28;20043;-56
2021/09/28 09:55:28;;;;;;;12.15;2.85;;;19.80;99.90;;;;;;5092885;28;20489;-56
2021/09/28 09:57:55;;;;;;;8.45;2.25;;;19.70;99.90;;;;;;5093194;28;20040;-57
2021/09/28 10:00:22;;;;;;;12.07;2.42;;;19.80;99.90;;;;;;5092714;28;20510;-56
2021/09/28 10:02:48;;;;;;;15.88;3.33;;;19.80;99.90;;;;;;5092840;28;20123;-56
2021/09/28 10:05:14;;;;;;;11.40;3.13;;;19.80;99.90;;;;;;5092969;28;20119;-56
2021/09/28 10:07:40;;;;;;;11.60;3.00;;;19.80;99.90;;;;;;5092884;28;20119;-56
2021/09/28 10:10:10;;;;;;;15.85;2.78;;;19.80;99.90;;;;;;5092740;28;20050;-56
2021/09/28 10:12:37;;;;;;;14.50;2.53;;;19.80;99.90;;;;;;5092606;28;20044;-56
2021/09/28 10:15:10;;;;;;;11.75;2.70;;;19.70;99.90;;;;;;5093161;28;20039;-56
2021/09/28 10:17:41;;;;;;;14.05;3.03;;;19.60;99.90;;;;;;5092919;28;20036;-56
2021/09/28 10:20:20;;;;;;;13.02;2.83;;;19.70;99.90;;;;;;5092461;28;20531;-56
2021/09/28 10:22:52;;;;;;;11.30;2.58;;;19.70;99.90;;;;;;5092869;28;20135;-56
2021/09/28 10:25:23;;;;;;;14.60;3.00;;;19.60;99.90;;;;;;5092230;28;20036;-56
2021/09/28 10:27:56;;;;;;;13.63;3.08;;;19.60;99.90;;;;;;5092742;28;20040;-56
2021/09/28 10:30:34;;;;;;;9.73;2.45;;;19.70;99.90;;;;;;5092716;28;20036;-56
2021/09/28 10:33:05;;;;;;;11.13;2.50;;;19.70;99.90;;;;;;5092546;28;20043;-56
2021/09/28 10:35:32;;;;;;;11.82;2.50;;;19.70;99.90;;;;;;5092124;28;20056;-56
2021/09/28 10:38:00;;;;;;;10.88;2.40;;;19.70;99.90;;;;;;5092587;28;20040;-56
2021/09/28 10:40:33;;;;;;;11.48;1.98;;;19.60;99.90;;;;;;5092386;28;20434;-56
2021/09/28 10:43:23;;;;;;;16.95;3.15;;;19.50;99.90;;;;;;5092253;28;20048;-56
2021/09/28 10:45:49;;;;;;;13.00;2.78;;;19.60;99.90;;;;;;5092082;28;20050;-56
2021/09/28 10:48:23;;;;;;;9.63;2.60;;;19.40;99.90;;;;;;5092276;28;20436;-56
2021/09/28 10:51:09;;;;;;;8.43;2.53;;;19.50;99.90;;;;;;5092272;28;20040;-55
2021/09/28 10:53:38;;;;;;;8.73;2.55;;;19.50;99.90;;;;;;5092151;28;20093;-56
2021/09/28 10:56:06;;;;;;;8.65;1.73;;;19.50;99.90;;;;;;5092082;28;20044;-56
2021/09/28 10:59:02;;;;;;;12.60;2.28;;;19.60;99.90;;;;;;5092006;28;20436;-56
2021/09/28 11:01:30;;;;;;;9.38;1.80;;;19.70;99.90;;;;;;5091918;28;20068;-56
2021/09/28 11:04:21;;;;;;;10.85;1.98;;;19.80;99.90;;;;;;5092083;28;20068;-56
2021/09/28 11:06:49;;;;;;;8.63;2.05;;;19.90;99.90;;;;;;5091867;28;20393;-56
2021/09/28 11:09:23;;;;;;;9.35;1.98;;;19.90;99.90;;;;;;5091846;28;20528;-56
2021/09/28 11:11:51;;;;;;;6.90;1.58;;;20.10;99.90;;;;;;5092243;28;20416;-56
2021/09/28 11:14:17;;;;;;;7.78;1.50;;;20.10;99.90;;;;;;5092046;28;20043;-56
2021/09/28 11:16:53;;;;;;;10.73;1.90;;;20.30;99.90;;;;;;5091682;28;20044;-56
2021/09/28 11:19:20;;;;;;;9.00;2.13;;;20.40;99.90;;;;;;5091728;28;20077;-55
2021/09/28 11:21:47;;;;;;;10.80;1.83;;;20.40;99.90;;;;;;5091909;28;20047;-56
2021/09/28 11:24:19;;;;;;;8.05;1.83;;;20.60;99.90;;;;;;5091788;28;20036;-56
2021/09/28 11:26:45;;;;;;;10.38;2.15;;;20.70;99.90;;;;;;5091847;28;20036;-56
2021/09/28 11:29:13;;;;;;;8.07;1.80;;;20.50;99.90;;;;;;5091788;28;20086;-56
2021/09/28 11:31:41;;;;;;;14.88;2.55;;;20.80;99.90;;;;;;5091761;28;20036;-56
2021/09/28 11:34:07;;;;;;;10.52;1.90;;;20.90;99.90;;;;;;5091404;28;20135;-56
2021/09/28 11:36:41;;;;;;;10.02;2.30;;;20.60;99.90;;;;;;5092638;28;20076;-56
2021/09/28 11:39:14;;;;;;;9.07;1.92;;;20.80;99.90;;;;;;5095795;28;20036;-56
2021/09/28 11:41:42;;;;;;;8.65;1.85;;;21.00;99.90;;;;;;5095543;28;20039;-56
2021/09/28 11:44:08;;;;;;;11.10;1.90;;;20.80;99.90;;;;;;5094619;28;20048;-56
2021/09/28 11:46:35;;;;;;;10.50;2.15;;;20.70;99.90;;;;;;5095670;28;20036;-56
2021/09/28 11:49:07;;;;;;;8.05;1.65;;;20.70;99.90;;;;;;5094322;28;20044;-56
2021/09/28 11:51:41;;;;;;;9.18;2.17;;;20.70;99.90;;;;;;5095448;28;20032;-56
2021/09/28 11:54:10;;;;;;;11.02;2.17;;;20.80;99.90;;;;;;5094260;28;20040;-57
2021/09/28 11:56:39;;;;;;;6.28;1.80;;;20.90;99.90;;;;;;5095242;28;20044;-56
2021/09/28 11:59:11;;;;;;;9.73;2.40;;;20.80;99.90;;;;;;5095375;28;20123;-56
2021/09/28 12:01:37;;;;;;;7.65;1.67;;;20.90;99.90;;;;;;5095377;28;20043;-56
2021/09/28 12:04:19;;;;;;;11.65;1.80;;;21.00;99.90;;;;;;5095201;28;20036;-56
2021/09/28 12:09:35;;;;;;;8.70;2.03;;;21.10;99.90;;;;;;5095023;28;20040;-56
2021/09/28 12:12:07;;;;;;;9.13;1.75;;;21.20;99.90;;;;;;5095342;28;20047;-56
2021/09/28 12:14:34;;;;;;;12.68;2.17;;;21.20;99.90;;;;;;5095062;28;20036;-56
2021/09/28 12:17:20;;;;;;;7.65;2.15;;;21.30;99.90;;;;;;5094994;28;20435;-56
2021/09/28 12:19:49;;;;;;;8.25;1.58;;;21.30;99.90;;;;;;5095118;28;20151;-56
2021/09/28 12:22:27;;;;;;;8.80;2.03;;;21.20;99.90;;;;;;5095023;28;20115;-56
2021/09/28 12:24:54;;;;;;;9.02;2.20;;;21.20;99.90;;;;;;5094969;28;20431;-55
2021/09/28 12:27:20;;;;;;;8.35;1.90;;;21.20;99.90;;;;;;5094698;28;20068;-56
2021/09/28 12:29:49;;;;;;;6.93;1.80;;;21.10;99.90;;;;;;5094806;28;20063;-56
2021/09/28 12:32:30;;;;;;;9.27;2.10;;;21.10;99.90;;;;;;5094480;28;20040;-56
2021/09/28 12:34:59;;;;;;;10.75;2.00;;;21.10;99.90;;;;;;5094660;28;20139;-55
2021/09/28 12:37:25;;;;;;;10.38;2.20;;;21.00;99.90;;;;;;5094604;28;20051;-56
2021/09/28 12:40:09;;;;;;;8.43;1.70;;;20.80;99.90;;;;;;5094611;28;20101;-55
2021/09/28 12:42:40;;;;;;;7.30;1.98;;;20.90;99.90;;;;;;5094406;28;20435;-56
2021/09/28 12:45:12;;;;;;;7.40;1.60;;;20.70;99.90;;;;;;5090724;28;20036;-56
2021/09/28 12:47:40;;;;;;;11.52;2.33;;;20.70;99.90;;;;;;5074137;28;20045;-56
2021/09/28 12:50:21;;;;;;;6.32;1.42;;;20.70;99.90;;;;;;5074384;28;20032;-56